createdAt,value
2024-05-09T00:00:40.026Z,3.10
2024-05-09T00:03:09.021Z,2.90
2024-05-09T00:05:37.253Z,2.80
2024-05-09T00:08:04.706Z,2.80
2024-05-09T00:10:36.487Z,2.70
2024-05-09T00:13:09.146Z,2.60
2024-05-09T00:15:37.119Z,2.90
2024-05-09T00:18:06.470Z,2.70
2024-05-09T00:20:38.822Z,2.90
2024-05-09T00:23:09.468Z,3.10
2024-05-09T00:25:37.840Z,2.90
2024-05-09T00:28:05.183Z,2.90
2024-05-09T00:30:35.317Z,3.20
2024-05-09T00:35:36.334Z,3.00
2024-05-09T00:38:03.479Z,3.20
2024-05-09T00:40:41.512Z,2.70
2024-05-09T00:43:14.587Z,3.60
2024-05-09T00:45:42.162Z,3.00
2024-05-09T00:48:13.398Z,3.70
2024-05-09T00:50:44.231Z,3.30
2024-05-09T00:53:12.684Z,3.40
2024-05-09T00:55:39.981Z,3.90
2024-05-09T00:58:08.476Z,2.90
2024-05-09T01:00:39.375Z,3.50
2024-05-09T01:03:10.529Z,3.30
2024-05-09T01:05:39.591Z,3.30
2024-05-09T01:08:08.412Z,3.50
2024-05-09T01:10:37.405Z,2.70
2024-05-09T01:13:04.966Z,3.80
2024-05-09T01:15:31.917Z,3.50
2024-05-09T01:18:01.510Z,3.40
2024-05-09T01:20:39.107Z,4.00
2024-05-09T01:23:10.054Z,4.00
2024-05-09T01:25:37.300Z,4.20
2024-05-09T01:28:04.136Z,4.30
2024-05-09T01:30:35.486Z,4.20
2024-05-09T01:33:06.466Z,4.20
2024-05-09T01:35:35.106Z,3.90
2024-05-09T01:38:01.820Z,3.50
2024-05-09T01:40:37.069Z,3.90
2024-05-09T01:43:06.739Z,3.90
2024-05-09T01:45:33.521Z,4.20
2024-05-09T01:48:00.475Z,4.40
2024-05-09T01:52:57.071Z,3.80
2024-05-09T01:55:23.860Z,4.00
2024-05-09T01:57:50.472Z,4.40
2024-05-09T02:00:22.452Z,4.20
2024-05-09T02:02:57.792Z,3.90
2024-05-09T02:05:24.618Z,4.10
2024-05-09T02:07:51.144Z,3.80
2024-05-09T02:10:23.487Z,4.00
2024-05-09T02:12:56.819Z,3.90
2024-05-09T02:15:23.339Z,4.00
2024-05-09T02:17:50.607Z,3.50
2024-05-09T02:20:26.769Z,3.50
2024-05-09T02:22:57.333Z,4.00
2024-05-09T02:25:26.919Z,4.00
2024-05-09T02:27:54.576Z,4.50
2024-05-09T02:30:29.988Z,4.20
2024-05-09T02:33:05.275Z,4.20
2024-05-09T02:35:32.269Z,3.80
2024-05-09T02:37:59.890Z,4.60
2024-05-09T02:40:35.546Z,4.10
2024-05-09T02:43:05.386Z,4.10
2024-05-09T02:45:32.209Z,4.60
2024-05-09T02:47:58.985Z,3.80
2024-05-09T02:50:33.800Z,4.40
2024-05-09T02:53:05.096Z,3.90
2024-05-09T02:55:31.761Z,4.80
2024-05-09T02:57:59.585Z,3.60
2024-05-09T03:00:34.730Z,4.20
2024-05-09T03:03:07.635Z,4.50
2024-05-09T03:05:34.947Z,4.50
2024-05-09T03:08:01.922Z,3.90
2024-05-09T03:10:29.332Z,3.50
2024-05-09T03:13:09.183Z,3.60
2024-05-09T03:15:36.182Z,4.80
2024-05-09T03:18:03.804Z,4.30
2024-05-09T03:20:34.632Z,4.00
2024-05-09T03:23:04.499Z,4.80
2024-05-09T03:25:31.659Z,4.80
2024-05-09T03:27:58.260Z,3.80
2024-05-09T03:30:36.138Z,4.20
2024-05-09T03:33:12.533Z,4.50
2024-05-09T03:35:40.223Z,5.00
2024-05-09T03:38:07.021Z,4.90
2024-05-09T03:40:33.606Z,4.40
2024-05-09T03:43:00.495Z,4.00
2024-05-09T03:45:26.949Z,4.10
2024-05-09T03:47:53.784Z,4.40
2024-05-09T03:50:29.420Z,4.60
2024-05-09T03:53:00.846Z,4.40
2024-05-09T03:55:27.844Z,4.30
2024-05-09T03:57:54.735Z,4.20
2024-05-09T04:00:30.562Z,4.30
2024-05-09T04:03:05.105Z,4.70
2024-05-09T04:05:32.679Z,5.30
2024-05-09T04:07:59.443Z,4.30
2024-05-09T04:10:32.815Z,4.70
2024-05-09T04:13:01.166Z,5.20
2024-05-09T04:15:28.170Z,4.10
2024-05-09T04:17:55.098Z,3.80
2024-05-09T04:20:32.951Z,4.20
2024-05-09T04:23:06.265Z,5.00
2024-05-09T04:25:33.283Z,4.40
2024-05-09T04:27:59.948Z,4.10
2024-05-09T04:30:35.978Z,3.60
2024-05-09T04:33:07.069Z,4.30
2024-05-09T04:35:35.324Z,4.00
2024-05-09T04:38:02.670Z,4.10
2024-05-09T04:40:34.065Z,3.30
2024-05-09T04:43:03.870Z,4.40
2024-05-09T04:45:30.901Z,3.80
2024-05-09T04:47:58.226Z,4.10
2024-05-09T04:50:33.399Z,3.40
2024-05-09T04:53:04.921Z,3.40
2024-05-09T04:55:32.472Z,3.70
2024-05-09T04:57:59.565Z,3.50
2024-05-09T05:00:34.168Z,3.60
2024-05-09T05:03:10.147Z,3.90
2024-05-09T05:05:42.284Z,4.60
2024-05-09T05:08:13.213Z,4.10
2024-05-09T05:10:40.530Z,3.60
2024-05-09T05:13:17.661Z,3.30
2024-05-09T05:15:46.044Z,2.90
2024-05-09T05:18:12.611Z,2.90
2024-05-09T05:20:39.182Z,3.00
2024-05-09T05:23:12.038Z,3.10
2024-05-09T05:25:39.027Z,3.00
2024-05-09T05:28:05.966Z,3.90
2024-05-09T05:30:34.754Z,3.50
2024-05-09T05:33:02.103Z,3.30
2024-05-09T05:35:28.916Z,3.30
2024-05-09T05:37:55.543Z,2.60
2024-05-09T05:40:28.665Z,3.00
2024-05-09T05:43:08.182Z,3.20
2024-05-09T05:45:35.001Z,3.10
2024-05-09T05:48:04.298Z,3.30
2024-05-09T05:50:35.928Z,3.30
2024-05-09T05:53:06.892Z,3.20
2024-05-09T05:55:33.932Z,3.30
2024-05-09T05:58:01.663Z,3.20
2024-05-09T06:00:34.885Z,2.80
2024-05-09T06:03:05.409Z,3.10
2024-05-09T06:05:32.502Z,3.20
2024-05-09T06:07:59.737Z,2.80
2024-05-09T06:10:34.847Z,3.40
2024-05-09T06:13:05.671Z,3.60
2024-05-09T06:15:32.142Z,4.10
2024-05-09T06:17:59.228Z,3.40
2024-05-09T06:20:34.631Z,3.30
2024-05-09T06:23:04.510Z,3.20
2024-05-09T06:25:31.876Z,3.10
2024-05-09T06:28:00.081Z,3.10
2024-05-09T06:30:35.307Z,3.10
2024-05-09T06:33:07.180Z,3.10
2024-05-09T06:35:34.291Z,3.40
2024-05-09T06:38:01.359Z,3.00
2024-05-09T06:40:36.297Z,3.00
2024-05-09T06:43:09.980Z,2.50
2024-05-09T06:45:36.753Z,3.10
2024-05-09T06:48:03.424Z,2.60
2024-05-09T06:50:36.844Z,2.70
2024-05-09T06:53:04.968Z,2.40
2024-05-09T06:55:31.470Z,2.90
2024-05-09T06:57:58.260Z,2.50
2024-05-09T07:00:30.904Z,2.60
2024-05-09T07:03:09.766Z,2.60
2024-05-09T07:05:36.952Z,2.80
2024-05-09T07:08:04.384Z,2.50
2024-05-09T07:10:35.016Z,3.20
2024-05-09T07:13:02.580Z,2.80
2024-05-09T07:15:29.427Z,3.20
2024-05-09T07:17:56.091Z,2.40
2024-05-09T07:20:31.854Z,2.90
2024-05-09T07:23:04.835Z,2.60
2024-05-09T07:25:31.559Z,3.60
2024-05-09T07:27:58.222Z,2.60
2024-05-09T07:30:32.681Z,2.70
2024-05-09T07:33:01.407Z,3.10
2024-05-09T07:35:28.946Z,2.70
2024-05-09T07:37:55.594Z,3.10
2024-05-09T07:40:31.585Z,2.50
2024-05-09T07:43:06.633Z,2.70
2024-05-09T07:52:23.430Z,2.70
2024-05-09T07:53:38.526Z,2.90
2024-05-09T07:56:06.835Z,2.40
2024-05-09T07:58:33.499Z,2.90
2024-05-09T08:01:00.063Z,2.50
2024-05-09T08:03:26.882Z,2.60
2024-05-09T08:05:54.398Z,2.90
2024-05-09T08:08:20.914Z,4.00
2024-05-09T08:10:47.646Z,3.80
2024-05-09T08:13:14.411Z,3.40
2024-05-09T08:15:41.433Z,3.60
2024-05-09T08:18:11.319Z,3.00
2024-05-09T08:20:38.766Z,3.70
2024-05-09T08:23:05.691Z,3.30
2024-05-09T08:25:32.114Z,3.80
2024-05-09T08:27:59.056Z,3.80
2024-05-09T08:30:32.798Z,4.10
2024-05-09T08:33:04.268Z,3.30
2024-05-09T08:35:31.279Z,3.80
2024-05-09T08:37:57.868Z,3.80
2024-05-09T08:40:31.071Z,3.30
2024-05-09T08:43:04.478Z,3.40
2024-05-09T08:45:34.540Z,2.70
2024-05-09T08:48:05.431Z,2.80
2024-05-09T08:50:38.474Z,2.60
2024-05-09T08:53:06.962Z,2.70
2024-05-09T08:55:33.620Z,2.90
2024-05-09T08:58:02.962Z,2.80
2024-05-09T09:00:36.747Z,2.70
2024-05-09T09:09:43.478Z,4.30
2024-05-09T09:12:12.210Z,3.70
2024-05-09T09:14:38.964Z,2.80
2024-05-09T09:17:15.826Z,2.60
2024-05-09T09:19:43.407Z,2.70
2024-05-09T09:22:10.319Z,3.50
2024-05-09T09:24:36.977Z,3.60
2024-05-09T09:27:04.026Z,3.00
2024-05-09T09:29:31.013Z,3.10
2024-05-09T09:32:03.494Z,3.10
2024-05-09T09:34:31.948Z,3.80
2024-05-09T09:37:01.694Z,4.10
2024-05-09T09:39:31.669Z,3.00
2024-05-09T09:41:59.437Z,3.20
2024-05-09T09:44:26.709Z,3.00
2024-05-09T09:46:58.123Z,3.10
2024-05-09T09:51:51.711Z,2.90
2024-05-09T09:54:19.462Z,2.90
2024-05-09T09:56:49.900Z,2.60
2024-05-09T09:59:16.689Z,3.20
2024-05-09T10:01:45.513Z,2.60
2024-05-09T10:04:15.576Z,3.60
2024-05-09T10:06:56.486Z,3.20
2024-05-09T10:09:23.476Z,3.10
2024-05-09T10:11:54.438Z,3.30
2024-05-09T10:14:25.094Z,2.60
2024-05-09T10:16:51.531Z,3.10
2024-05-09T10:19:28.238Z,2.80
2024-05-09T10:22:05.795Z,2.60
2024-05-09T10:24:53.023Z,3.00
2024-05-09T10:27:30.143Z,2.90
2024-05-09T10:29:58.907Z,2.60
2024-05-09T10:32:27.919Z,2.80
2024-05-09T10:35:01.540Z,2.60
2024-05-09T10:37:29.033Z,2.60
2024-05-09T10:39:58.228Z,3.00
2024-05-09T10:42:26.181Z,3.10
2024-05-09T10:44:53.230Z,3.00
2024-05-09T10:47:20.569Z,2.70
2024-05-09T10:49:47.985Z,2.50
2024-05-09T10:52:14.845Z,2.70
2024-05-09T10:54:41.489Z,2.50
2024-05-09T10:57:08.022Z,2.70
2024-05-09T11:02:35.567Z,2.90
2024-05-09T11:05:02.355Z,2.50
2024-05-09T11:07:29.785Z,3.10
2024-05-09T11:09:56.624Z,2.90
2024-05-09T11:12:24.775Z,3.10
2024-05-09T11:14:54.688Z,2.80
2024-05-09T11:17:21.777Z,3.50
2024-05-09T11:19:50.619Z,2.80
2024-05-09T11:22:17.399Z,2.50
2024-05-09T11:24:44.048Z,2.70
2024-05-09T11:27:10.758Z,3.10
2024-05-09T11:29:40.751Z,3.20
2024-05-09T11:32:12.125Z,3.10
2024-05-09T11:34:38.962Z,2.50
2024-05-09T11:37:05.658Z,2.90
2024-05-09T11:39:32.235Z,3.00
2024-05-09T11:41:58.872Z,2.10
2024-05-09T11:44:26.578Z,2.30
2024-05-09T11:46:53.852Z,2.30
2024-05-09T11:49:23.160Z,2.40
2024-05-09T11:51:51.509Z,2.70
2024-05-09T11:54:17.999Z,2.20
2024-05-09T11:56:44.456Z,2.10
2024-05-09T11:59:11.398Z,2.80
2024-05-09T12:01:37.973Z,2.50
2024-05-09T12:04:05.113Z,2.60
2024-05-09T12:06:32.070Z,2.80
2024-05-09T12:08:58.807Z,2.60
2024-05-09T12:11:25.390Z,2.70
2024-05-09T12:13:51.824Z,2.40
2024-05-09T12:16:18.397Z,2.50
2024-05-09T12:18:44.882Z,2.50
2024-05-09T12:21:11.361Z,2.10
2024-05-09T12:23:38.628Z,2.50
2024-05-09T12:26:06.168Z,2.00
2024-05-09T12:28:32.878Z,2.40
2024-05-09T12:30:59.600Z,1.80
2024-05-09T12:33:26.144Z,2.00
2024-05-09T12:35:52.704Z,2.60
2024-05-09T12:38:19.120Z,2.50
2024-05-09T12:40:45.814Z,2.80
2024-05-09T12:43:12.417Z,2.70
2024-05-09T12:45:40.055Z,3.30
2024-05-09T12:48:08.237Z,2.90
2024-05-09T12:50:35.968Z,3.00
2024-05-09T12:53:04.023Z,2.80
2024-05-09T12:55:41.402Z,2.70
2024-05-09T12:58:19.111Z,2.90
2024-05-09T13:00:46.586Z,3.00
2024-05-09T13:03:13.885Z,2.70
2024-05-09T13:05:41.110Z,2.90
2024-05-09T13:08:07.851Z,2.70
2024-05-09T13:10:34.736Z,2.60
2024-05-09T13:13:02.206Z,2.60
2024-05-09T13:15:31.122Z,2.80
2024-05-09T13:18:01.660Z,2.90
2024-05-09T13:20:33.491Z,3.10
2024-05-09T13:23:07.605Z,2.00
2024-05-09T13:25:35.350Z,2.90
2024-05-09T13:28:03.514Z,2.90
2024-05-09T13:30:38.825Z,2.70
2024-05-09T13:33:12.205Z,2.00
2024-05-09T13:35:45.732Z,2.50
2024-05-09T13:38:16.490Z,2.80
2024-05-09T13:40:42.991Z,2.90
2024-05-09T13:43:09.462Z,2.40
2024-05-09T13:45:36.176Z,3.20
2024-05-09T13:48:03.715Z,2.60
2024-05-09T13:50:34.737Z,3.00
2024-05-09T13:53:05.614Z,3.00
2024-05-09T13:55:33.350Z,2.60
2024-05-09T13:58:00.405Z,2.90
2024-05-09T14:00:38.059Z,2.80
2024-05-09T14:03:11.478Z,2.80
2024-05-09T14:05:38.219Z,2.80
2024-05-09T14:08:05.515Z,2.50
2024-05-09T14:10:32.726Z,2.50
2024-05-09T14:13:00.740Z,2.70
2024-05-09T14:15:27.544Z,2.50
2024-05-09T14:17:54.800Z,2.70
2024-05-09T14:22:50.907Z,2.30
2024-05-09T14:25:17.602Z,3.40
2024-05-09T14:27:44.374Z,2.90
2024-05-09T14:30:18.232Z,2.80
2024-05-09T14:35:19.696Z,3.00
2024-05-09T14:37:46.203Z,2.70
2024-05-09T14:40:29.827Z,2.80
2024-05-09T14:43:03.136Z,2.70
2024-05-09T14:45:29.971Z,2.80
2024-05-09T14:47:56.817Z,3.20
2024-05-09T14:50:28.302Z,2.70
2024-05-09T14:53:01.794Z,2.40
2024-05-09T14:55:28.418Z,2.80
2024-05-09T14:57:55.386Z,2.30
2024-05-09T15:00:28.640Z,2.20
2024-05-09T15:02:59.543Z,2.60
2024-05-09T15:05:26.174Z,2.40
2024-05-09T15:07:52.796Z,2.40
2024-05-09T15:10:26.889Z,2.20
2024-05-09T15:13:00.540Z,2.60
2024-05-09T15:15:27.058Z,2.30
2024-05-09T15:17:54.826Z,2.30
2024-05-09T15:20:30.403Z,2.90
2024-05-09T15:23:00.888Z,2.60
2024-05-09T15:25:27.852Z,2.70
2024-05-09T15:27:54.853Z,2.90
2024-05-09T15:30:29.834Z,3.00
2024-05-09T15:32:59.108Z,2.50
2024-05-09T15:35:25.669Z,2.70
2024-05-09T15:37:52.226Z,2.40
2024-05-09T15:40:26.822Z,2.30
2024-05-09T15:43:02.427Z,2.40
2024-05-09T15:45:29.370Z,2.60
2024-05-09T15:47:56.932Z,2.30
2024-05-09T15:50:35.145Z,2.20
2024-05-09T15:53:06.304Z,2.80
2024-05-09T15:55:33.507Z,2.30
2024-05-09T15:58:01.109Z,2.40
2024-05-09T16:00:36.453Z,2.50
2024-05-09T16:03:06.769Z,2.30
2024-05-09T16:05:33.691Z,2.40
2024-05-09T16:08:00.417Z,2.60
2024-05-09T16:10:32.378Z,2.30
2024-05-09T16:13:01.143Z,2.30
2024-05-09T16:15:27.852Z,2.10
2024-05-09T16:17:57.467Z,2.60
2024-05-09T16:22:54.270Z,2.80
2024-05-09T16:25:20.703Z,2.50
2024-05-09T16:27:47.411Z,2.80
2024-05-09T16:30:21.315Z,2.50
2024-05-09T16:32:54.856Z,2.00
2024-05-09T16:35:21.668Z,2.50
2024-05-09T16:37:48.322Z,2.40
2024-05-09T16:40:22.175Z,2.10
2024-05-09T16:42:56.637Z,2.50
2024-05-09T16:45:23.705Z,2.10
2024-05-09T16:47:50.459Z,2.20
2024-05-09T16:50:25.715Z,2.00
2024-05-09T16:52:55.668Z,2.10
2024-05-09T16:55:22.291Z,2.20
2024-05-09T16:57:49.284Z,2.10
2024-05-09T17:00:25.243Z,2.00
2024-05-09T17:02:58.173Z,2.60
2024-05-09T17:05:24.785Z,2.50
2024-05-09T17:07:51.495Z,2.40
2024-05-09T17:10:26.518Z,2.50
2024-05-09T17:12:58.601Z,2.30
2024-05-09T17:15:25.528Z,2.20
2024-05-09T17:17:52.472Z,2.10
2024-05-09T17:20:26.110Z,2.30
2024-05-09T17:22:59.173Z,2.00
2024-05-09T17:25:25.736Z,2.30
2024-05-09T17:27:52.330Z,2.30
2024-05-09T17:30:28.488Z,2.10
2024-05-09T17:32:59.420Z,2.00
2024-05-09T17:35:26.004Z,1.90
2024-05-09T17:37:52.517Z,2.30
2024-05-09T17:40:27.425Z,2.30
2024-05-09T17:42:59.332Z,2.00
2024-05-09T17:45:25.826Z,2.00
2024-05-09T17:47:52.440Z,2.20
2024-05-09T17:50:27.276Z,2.90
2024-05-09T17:53:00.525Z,2.40
2024-05-09T17:55:27.690Z,2.30
2024-05-09T17:57:54.363Z,2.30
2024-05-09T18:00:29.289Z,2.20
2024-05-09T18:03:04.325Z,2.80
2024-05-09T18:05:33.580Z,2.70
2024-05-09T18:08:00.411Z,3.40
2024-05-09T18:10:33.751Z,10.70
2024-05-09T18:13:07.525Z,5.70
2024-05-09T18:15:34.281Z,5.70
2024-05-09T18:18:02.128Z,6.60
2024-05-09T18:20:37.976Z,13.00
2024-05-09T18:23:10.434Z,10.30
2024-05-09T18:25:37.032Z,9.10
2024-05-09T18:28:04.022Z,8.50
2024-05-09T18:30:35.004Z,9.00
2024-05-09T18:33:05.121Z,7.70
2024-05-09T18:35:32.893Z,6.80
2024-05-09T18:37:59.516Z,6.30
2024-05-09T18:40:32.955Z,9.50
2024-05-09T18:43:04.150Z,9.80
2024-05-09T18:45:31.114Z,10.10
2024-05-09T18:47:57.980Z,9.20
2024-05-09T18:50:32.510Z,7.70
2024-05-09T18:53:06.048Z,5.80
2024-05-09T18:55:33.401Z,6.80
2024-05-09T18:58:00.057Z,8.30
2024-05-09T19:00:33.811Z,5.70
2024-05-09T19:03:04.672Z,7.00
2024-05-09T19:05:32.185Z,7.50
2024-05-09T19:07:59.418Z,6.60
2024-05-09T19:10:32.009Z,6.10
2024-05-09T19:13:01.614Z,6.80
2024-05-09T19:15:28.919Z,7.00
2024-05-09T19:17:55.761Z,6.80
2024-05-09T19:20:28.629Z,6.90
2024-05-09T19:23:00.558Z,7.50
2024-05-09T19:25:27.083Z,7.60
2024-05-09T19:27:54.964Z,6.90
2024-05-09T19:30:33.018Z,20.10
2024-05-09T19:33:06.024Z,24.40
2024-05-09T19:35:32.975Z,25.60
2024-05-09T19:37:59.885Z,22.70
2024-05-09T19:40:31.404Z,18.40
2024-05-09T19:43:01.485Z,20.40
2024-05-09T19:45:28.793Z,14.40
2024-05-09T19:47:55.779Z,12.30
2024-05-09T19:50:30.997Z,10.30
2024-05-09T19:53:04.033Z,7.80
2024-05-09T19:55:30.534Z,7.10
2024-05-09T19:57:57.885Z,7.10
2024-05-09T20:00:32.647Z,11.10
2024-05-09T20:03:03.001Z,9.10
2024-05-09T20:05:32.805Z,8.90
2024-05-09T20:08:00.539Z,12.40
2024-05-09T20:10:32.173Z,10.10
2024-05-09T20:13:01.465Z,7.70
2024-05-09T20:15:28.199Z,7.60
2024-05-09T20:17:55.278Z,7.30
2024-05-09T20:20:33.044Z,8.40
2024-05-09T20:23:06.125Z,8.20
2024-05-09T20:25:32.945Z,7.90
2024-05-09T20:27:59.694Z,7.80
2024-05-09T20:30:32.150Z,10.20
2024-05-09T20:33:04.042Z,10.00
2024-05-09T20:35:32.446Z,12.00
2024-05-09T20:38:01.632Z,12.10
2024-05-09T20:40:33.856Z,14.30
2024-05-09T20:43:04.434Z,13.30
2024-05-09T20:45:31.412Z,15.00
2024-05-09T20:48:00.627Z,13.50
2024-05-09T20:50:36.163Z,14.00
2024-05-09T20:53:09.221Z,13.40
2024-05-09T20:55:36.454Z,13.80
2024-05-09T20:58:03.256Z,15.50
2024-05-09T21:00:38.868Z,14.40
2024-05-09T21:03:09.019Z,16.10
2024-05-09T21:05:36.005Z,19.00
2024-05-09T21:08:03.034Z,18.50
2024-05-09T21:10:33.202Z,19.30
2024-05-09T21:13:01.672Z,19.70
2024-05-09T21:15:28.738Z,19.00
2024-05-09T21:17:55.369Z,19.50
2024-05-09T21:20:28.679Z,17.60
2024-05-09T21:22:58.177Z,16.90
2024-05-09T21:25:25.581Z,14.10
2024-05-09T21:27:52.523Z,13.60
2024-05-09T21:30:31.227Z,12.80
2024-05-09T21:33:05.696Z,13.30
2024-05-09T21:35:32.301Z,13.20
2024-05-09T21:37:58.789Z,12.60
2024-05-09T21:40:31.642Z,11.70
2024-05-09T21:43:01.503Z,13.80
2024-05-09T21:45:28.195Z,13.20
2024-05-09T21:47:54.842Z,13.10
2024-05-09T21:50:28.065Z,14.70
2024-05-09T21:52:59.200Z,12.60
2024-05-09T21:55:25.714Z,12.60
2024-05-09T21:57:52.191Z,12.00
2024-05-09T22:00:28.629Z,12.00
2024-05-09T22:03:01.996Z,12.50
2024-05-09T22:05:28.729Z,12.60
2024-05-09T22:07:55.895Z,12.50
2024-05-09T22:10:26.559Z,12.10
2024-05-09T22:12:59.085Z,12.00
2024-05-09T22:15:25.675Z,12.20
2024-05-09T22:17:52.165Z,12.60
2024-05-09T22:20:25.969Z,12.10
2024-05-09T22:23:00.742Z,12.60
2024-05-09T22:25:30.478Z,11.90
2024-05-09T22:27:57.511Z,12.10
2024-05-09T22:30:32.053Z,11.10
2024-05-09T22:33:03.508Z,10.70
2024-05-09T22:35:30.094Z,11.90
2024-05-09T22:37:56.453Z,11.00
2024-05-09T22:40:32.216Z,10.80
2024-05-09T22:43:05.825Z,11.30
2024-05-09T22:45:32.720Z,11.50
2024-05-09T22:47:59.641Z,11.60
2024-05-09T22:50:30.531Z,11.40
2024-05-09T22:52:59.010Z,11.30
2024-05-09T22:55:25.654Z,12.00
2024-05-09T22:57:52.188Z,10.10
2024-05-09T23:02:52.744Z,12.10
2024-05-09T23:05:19.284Z,10.70
2024-05-09T23:07:45.758Z,10.70
2024-05-09T23:10:17.198Z,10.90
2024-05-09T23:12:48.666Z,11.20
2024-05-09T23:15:15.107Z,11.40
2024-05-09T23:17:45.136Z,11.50
2024-05-09T23:20:14.485Z,10.70
2024-05-09T23:22:41.142Z,9.30
2024-05-09T23:25:07.552Z,10.70
2024-05-09T23:27:34.053Z,11.00
2024-05-09T23:30:00.707Z,10.40
2024-05-09T23:32:27.423Z,10.60
2024-05-09T23:34:54.139Z,10.80
2024-05-09T23:37:20.968Z,10.00
2024-05-09T23:39:47.609Z,11.10
2024-05-09T23:42:14.413Z,11.10
2024-05-09T23:44:41.016Z,11.50
2024-05-09T23:47:10.599Z,11.00
2024-05-09T23:49:37.415Z,11.70
2024-05-09T23:52:04.873Z,10.60
2024-05-09T23:54:31.324Z,9.20
2024-05-09T23:56:57.749Z,9.70
2024-05-09T23:59:24.107Z,10.00
